createdAt,value
2018-08-27T00:02:07.937Z,70.69
2018-08-27T00:04:37.658Z,72.15
2018-08-27T00:07:07.588Z,72.30
2018-08-27T00:09:37.312Z,73.02
2018-08-27T00:12:07.130Z,73.98
2018-08-27T00:14:36.820Z,75.30
2018-08-27T00:17:06.559Z,76.45
2018-08-27T00:19:36.242Z,78.26
2018-08-27T00:22:06.059Z,83.43
2018-08-27T00:24:35.811Z,83.17
2018-08-27T00:27:05.560Z,82.13
2018-08-27T00:29:35.256Z,81.98
2018-08-27T00:32:05.152Z,82.38
2018-08-27T00:34:34.988Z,81.55
2018-08-27T00:37:04.794Z,77.47
2018-08-27T00:39:34.531Z,79.92
2018-08-27T00:42:04.244Z,79.55
2018-08-27T00:44:33.962Z,78.60
2018-08-27T00:47:03.888Z,79.63
2018-08-27T00:49:33.702Z,80.79
2018-08-27T00:52:03.441Z,79.89
2018-08-27T00:54:33.181Z,79.58
2018-08-27T00:57:02.893Z,79.52
2018-08-27T00:59:32.609Z,79.79
2018-08-27T01:02:02.330Z,81.97
2018-08-27T01:04:32.082Z,81.79
2018-08-27T01:07:01.850Z,82.46
2018-08-27T01:09:31.558Z,83.91
2018-08-27T01:12:01.230Z,86.37
2018-08-27T01:14:30.980Z,85.82
2018-08-27T01:17:00.705Z,85.95
2018-08-27T01:19:30.510Z,85.01
2018-08-27T01:22:00.225Z,84.69
2018-08-27T01:24:30.017Z,82.46
2018-08-27T01:26:59.806Z,83.34
2018-08-27T01:29:29.536Z,82.80
2018-08-27T01:32:04.469Z,83.00
2018-08-27T01:34:34.249Z,79.60
2018-08-27T01:37:03.989Z,79.62
2018-08-27T01:39:33.748Z,81.02
2018-08-27T01:42:03.619Z,82.09
2018-08-27T01:44:33.337Z,82.28
2018-08-27T01:47:03.202Z,82.72
2018-08-27T01:49:32.948Z,84.94
2018-08-27T01:52:02.593Z,85.12
2018-08-27T01:54:32.353Z,86.59
2018-08-27T01:57:02.161Z,85.83
2018-08-27T01:59:31.845Z,87.65
2018-08-27T02:02:01.971Z,91.50
2018-08-27T02:04:31.653Z,92.82
2018-08-27T02:07:01.463Z,92.64
2018-08-27T02:09:31.268Z,96.36
2018-08-27T02:12:00.968Z,92.16
2018-08-27T02:14:30.798Z,95.29
2018-08-27T02:17:00.511Z,96.31
2018-08-27T02:19:30.264Z,95.48
2018-08-27T02:21:59.956Z,93.31
2018-08-27T02:24:29.787Z,93.35
2018-08-27T02:26:59.548Z,93.32
2018-08-27T02:29:29.340Z,94.27
2018-08-27T02:31:59.146Z,94.26
2018-08-27T02:34:28.878Z,93.61
2018-08-27T02:36:58.570Z,92.23
2018-08-27T02:39:28.318Z,91.76
2018-08-27T02:41:58.022Z,90.68
2018-08-27T02:44:27.761Z,91.91
2018-08-27T02:46:57.542Z,91.79
2018-08-27T02:49:27.276Z,94.08
2018-08-27T02:51:56.985Z,92.63
2018-08-27T02:54:26.714Z,93.09
2018-08-27T02:56:59.433Z,93.57
2018-08-27T02:59:29.134Z,93.52
2018-08-27T03:01:58.800Z,93.51
2018-08-27T03:04:28.585Z,92.70
2018-08-27T03:06:58.365Z,95.46
2018-08-27T03:09:28.070Z,95.97
2018-08-27T03:11:57.865Z,95.32
2018-08-27T03:14:27.561Z,96.03
2018-08-27T03:16:57.211Z,96.78
2018-08-27T03:19:26.918Z,95.66
2018-08-27T03:21:56.580Z,95.17
2018-08-27T03:24:26.339Z,95.26
2018-08-27T03:26:55.989Z,96.58
2018-08-27T03:29:25.745Z,96.91
2018-08-27T03:31:55.441Z,96.48
2018-08-27T03:34:25.141Z,97.68
2018-08-27T03:36:55.026Z,98.15
2018-08-27T03:39:24.724Z,98.24
2018-08-27T03:41:54.460Z,98.32
2018-08-27T03:44:24.295Z,97.39
2018-08-27T03:46:53.982Z,98.25
2018-08-27T03:49:23.727Z,99.26
2018-08-27T03:51:53.439Z,98.56
2018-08-27T03:54:23.327Z,96.82
2018-08-27T03:56:53.029Z,98.75
2018-08-27T03:59:22.694Z,98.94
2018-08-27T04:01:52.466Z,97.58
2018-08-27T04:04:22.139Z,98.32
2018-08-27T04:06:51.900Z,100.00
2018-08-27T04:09:22.718Z,99.44
2018-08-27T04:11:52.517Z,100.00
2018-08-27T04:14:22.201Z,100.00
2018-08-27T04:16:53.057Z,100.00
2018-08-27T04:19:22.718Z,100.00
2018-08-27T04:21:52.380Z,99.67
2018-08-27T04:24:22.055Z,99.51
2018-08-27T04:26:51.775Z,100.00
2018-08-27T04:29:21.501Z,99.87
2018-08-27T04:31:51.238Z,99.63
2018-08-27T04:34:20.964Z,100.00
2018-08-27T04:36:50.659Z,100.00
2018-08-27T04:39:20.355Z,99.70
2018-08-27T04:41:50.036Z,99.83
2018-08-27T04:44:19.758Z,99.45
2018-08-27T04:46:49.586Z,99.89
2018-08-27T04:49:19.826Z,97.93
2018-08-27T04:51:49.547Z,97.86
2018-08-27T04:54:19.321Z,98.45
2018-08-27T04:56:49.108Z,98.71
2018-08-27T04:59:21.525Z,98.76
2018-08-27T05:01:51.265Z,97.59
2018-08-27T05:04:21.059Z,96.79
2018-08-27T05:06:50.778Z,97.84
2018-08-27T05:09:20.529Z,97.07
2018-08-27T05:11:50.427Z,97.27
2018-08-27T05:14:20.101Z,97.23
2018-08-27T05:16:49.883Z,95.35
2018-08-27T05:19:19.751Z,96.54
2018-08-27T05:21:49.408Z,96.71
2018-08-27T05:24:19.315Z,96.79
2018-08-27T05:26:55.818Z,96.40
2018-08-27T05:29:25.713Z,97.10
2018-08-27T05:31:55.425Z,97.03
2018-08-27T05:34:25.262Z,97.94
2018-08-27T05:36:55.057Z,98.51
2018-08-27T05:39:24.817Z,97.44
2018-08-27T05:41:54.616Z,97.77
2018-08-27T05:44:24.330Z,97.16
2018-08-27T05:46:54.127Z,96.40
2018-08-27T05:49:23.917Z,96.01
2018-08-27T05:51:53.956Z,96.24
2018-08-27T05:54:23.787Z,96.83
2018-08-27T05:56:53.461Z,95.37
2018-08-27T05:59:24.462Z,95.33
2018-08-27T06:01:55.237Z,95.63
2018-08-27T06:04:25.780Z,96.11
2018-08-27T06:06:55.623Z,95.81
2018-08-27T06:09:25.325Z,95.96
2018-08-27T06:11:55.059Z,95.33
2018-08-27T06:14:24.825Z,95.60
2018-08-27T06:16:54.551Z,94.80
2018-08-27T06:19:24.329Z,93.43
2018-08-27T06:21:54.251Z,92.71
2018-08-27T06:24:24.028Z,91.44
2018-08-27T06:26:53.738Z,90.60
2018-08-27T06:29:23.540Z,90.45
2018-08-27T06:31:53.253Z,90.92
2018-08-27T06:34:22.935Z,89.90
2018-08-27T06:36:52.665Z,91.23
2018-08-27T06:39:22.434Z,91.22
2018-08-27T06:41:52.201Z,89.94
2018-08-27T06:44:22.022Z,90.28
2018-08-27T06:46:51.891Z,91.05
2018-08-27T06:49:21.687Z,90.36
2018-08-27T06:51:51.420Z,89.91
2018-08-27T06:54:21.192Z,88.99
2018-08-27T06:56:50.964Z,89.71
2018-08-27T06:59:20.624Z,89.88
2018-08-27T07:01:50.363Z,87.74
2018-08-27T07:04:20.129Z,88.63
2018-08-27T07:06:49.886Z,88.82
2018-08-27T07:09:19.665Z,88.20
2018-08-27T07:11:49.487Z,87.06
2018-08-27T07:14:19.253Z,87.12
2018-08-27T07:16:49.195Z,87.62
2018-08-27T07:19:19.186Z,86.63
2018-08-27T07:21:49.465Z,86.75
2018-08-27T07:24:19.240Z,86.50
2018-08-27T07:26:48.961Z,86.74
2018-08-27T07:29:18.903Z,84.99
2018-08-27T07:31:48.664Z,83.53
2018-08-27T07:34:18.310Z,84.49
2018-08-27T07:36:48.082Z,83.35
2018-08-27T07:39:18.068Z,82.93
2018-08-27T07:41:47.910Z,84.49
2018-08-27T07:44:17.774Z,83.58
2018-08-27T07:46:47.492Z,83.74
2018-08-27T07:49:19.573Z,83.12
2018-08-27T07:51:49.408Z,82.93
2018-08-27T07:54:19.109Z,82.91
2018-08-27T07:56:48.836Z,84.72
2018-08-27T07:59:18.604Z,83.16
2018-08-27T08:01:48.298Z,82.78
2018-08-27T08:04:18.003Z,82.76
2018-08-27T08:06:47.692Z,82.38
2018-08-27T08:09:17.414Z,82.86
2018-08-27T08:11:47.087Z,82.21
2018-08-27T08:14:16.837Z,82.45
2018-08-27T08:16:46.604Z,83.47
2018-08-27T08:19:16.503Z,83.08
2018-08-27T08:21:46.255Z,82.93
2018-08-27T08:24:16.107Z,82.43
2018-08-27T08:26:45.852Z,81.13
2018-08-27T08:29:16.734Z,82.93
2018-08-27T08:31:46.544Z,82.70
2018-08-27T08:34:16.445Z,81.05
2018-08-27T08:36:46.230Z,81.41
2018-08-27T08:39:16.069Z,81.04
2018-08-27T08:41:45.873Z,80.63
2018-08-27T08:44:15.629Z,79.43
2018-08-27T08:46:45.368Z,80.09
2018-08-27T08:49:15.059Z,79.42
2018-08-27T08:51:44.963Z,81.13
2018-08-27T08:54:14.872Z,81.15
2018-08-27T08:56:44.621Z,80.17
2018-08-27T08:59:14.327Z,79.91
2018-08-27T09:01:44.688Z,78.98
2018-08-27T09:04:14.338Z,79.54
2018-08-27T09:06:44.157Z,79.38
2018-08-27T09:09:13.910Z,79.30
2018-08-27T09:11:43.725Z,77.55
2018-08-27T09:14:13.670Z,77.95
2018-08-27T09:16:43.587Z,76.20
2018-08-27T09:19:14.175Z,76.78
2018-08-27T09:21:44.201Z,75.37
2018-08-27T09:24:14.974Z,77.10
2018-08-27T09:26:44.943Z,76.88
2018-08-27T09:29:15.457Z,75.38
2018-08-27T09:31:45.214Z,74.17
2018-08-27T09:34:18.302Z,74.92
2018-08-27T09:36:49.533Z,71.77
2018-08-27T09:39:19.222Z,73.80
2018-08-27T09:41:49.190Z,72.50
2018-08-27T09:44:18.956Z,72.95
2018-08-27T09:46:48.804Z,72.17
2018-08-27T09:49:18.507Z,72.95
2018-08-27T09:51:48.214Z,71.99
2018-08-27T09:54:18.045Z,68.76
2018-08-27T09:56:47.889Z,67.87
2018-08-27T09:59:18.695Z,68.23
2018-08-27T10:01:53.633Z,67.93
2018-08-27T10:04:23.460Z,69.10
2018-08-27T10:06:53.136Z,70.33
2018-08-27T10:09:23.078Z,69.94
2018-08-27T10:11:53.010Z,69.34
2018-08-27T10:14:22.961Z,70.95
2018-08-27T10:16:52.981Z,71.32
2018-08-27T10:19:22.697Z,69.57
2018-08-27T10:21:52.691Z,69.27
2018-08-27T10:24:22.857Z,69.86
2018-08-27T10:26:53.727Z,68.48
2018-08-27T10:29:23.503Z,67.45
2018-08-27T10:31:55.439Z,62.27
2018-08-27T10:34:25.293Z,60.44
2018-08-27T10:36:55.030Z,64.30
2018-08-27T10:39:24.824Z,63.88
2018-08-27T10:41:54.506Z,63.97
2018-08-27T10:44:24.387Z,63.69
2018-08-27T10:46:54.149Z,62.60
2018-08-27T10:49:24.902Z,62.62
2018-08-27T10:51:54.711Z,62.41
2018-08-27T10:54:24.683Z,57.75
2018-08-27T10:56:54.749Z,56.42
2018-08-27T10:59:25.921Z,57.20
2018-08-27T11:01:55.756Z,55.68
2018-08-27T11:04:25.531Z,55.21
2018-08-27T11:06:55.316Z,52.72
2018-08-27T11:09:25.077Z,52.98
2018-08-27T11:11:54.918Z,50.33
2018-08-27T11:14:24.669Z,51.13
2018-08-27T11:16:54.376Z,48.99
2018-08-27T11:19:24.169Z,48.35
2018-08-27T11:21:54.012Z,47.84
2018-08-27T11:24:23.784Z,48.18
2018-08-27T11:26:53.605Z,49.47
2018-08-27T11:29:23.334Z,45.89
2018-08-27T11:31:53.169Z,46.16
2018-08-27T11:34:24.089Z,44.68
2018-08-27T11:36:53.811Z,45.20
2018-08-27T11:39:23.673Z,45.09
2018-08-27T11:41:53.349Z,42.21
2018-08-27T11:44:23.151Z,46.55
2018-08-27T11:46:52.854Z,49.24
2018-08-27T11:49:22.587Z,51.67
2018-08-27T11:51:52.500Z,51.09
2018-08-27T11:54:22.427Z,52.11
2018-08-27T11:56:52.122Z,50.86
2018-08-27T11:59:21.808Z,46.82
2018-08-27T12:01:51.726Z,47.31
2018-08-27T12:04:21.750Z,46.79
2018-08-27T12:06:51.466Z,45.84
2018-08-27T12:09:21.334Z,48.29
2018-08-27T12:11:51.018Z,47.08
2018-08-27T12:14:21.309Z,47.21
2018-08-27T12:16:51.259Z,46.37
2018-08-27T12:19:21.037Z,42.86
2018-08-27T12:21:50.787Z,44.18
2018-08-27T12:24:20.552Z,44.01
2018-08-27T12:26:50.649Z,46.65
2018-08-27T12:29:20.502Z,45.01
2018-08-27T12:31:50.303Z,45.08
2018-08-27T12:34:20.201Z,43.83
2018-08-27T12:36:49.973Z,44.49
2018-08-27T12:39:20.051Z,44.06
2018-08-27T12:41:50.067Z,42.31
2018-08-27T12:44:19.835Z,42.28
2018-08-27T12:46:49.609Z,40.39
2018-08-27T12:49:19.388Z,42.64
2018-08-27T12:51:49.203Z,40.09
2018-08-27T12:54:19.307Z,42.57
2018-08-27T12:56:48.993Z,40.72
2018-08-27T12:59:19.575Z,40.01
2018-08-27T13:01:49.366Z,42.47
2018-08-27T13:04:19.253Z,42.78
2018-08-27T13:06:49.215Z,43.00
2018-08-27T13:09:19.786Z,42.21
2018-08-27T13:11:49.729Z,41.05
2018-08-27T13:14:19.788Z,42.30
2018-08-27T13:16:49.548Z,42.36
2018-08-27T13:19:19.312Z,41.85
2018-08-27T13:21:49.067Z,43.68
2018-08-27T13:24:18.777Z,40.94
2018-08-27T13:26:48.575Z,42.66
2018-08-27T13:29:18.334Z,41.18
2018-08-27T13:31:49.359Z,41.83
2018-08-27T13:34:20.083Z,42.50
2018-08-27T13:36:49.883Z,41.80
2018-08-27T13:39:19.711Z,40.52
2018-08-27T13:41:49.436Z,40.31
2018-08-27T13:44:19.408Z,40.86
2018-08-27T13:46:49.379Z,39.84
2018-08-27T13:49:19.146Z,43.05
2018-08-27T13:51:50.038Z,42.25
2018-08-27T13:54:19.750Z,40.08
2018-08-27T13:56:49.414Z,40.30
2018-08-27T13:59:19.111Z,43.88
2018-08-27T14:01:48.933Z,44.96
2018-08-27T14:04:18.657Z,44.74
2018-08-27T14:06:48.486Z,43.77
2018-08-27T14:09:18.226Z,43.74
2018-08-27T14:11:47.895Z,43.26
2018-08-27T14:14:17.601Z,43.07
2018-08-27T14:16:47.305Z,42.37
2018-08-27T14:19:17.417Z,39.60
2018-08-27T14:21:47.137Z,41.24
2018-08-27T14:24:16.879Z,40.02
2018-08-27T14:26:46.572Z,42.42
2018-08-27T14:29:16.368Z,43.16
2018-08-27T14:31:46.158Z,42.73
2018-08-27T14:34:16.094Z,43.65
2018-08-27T14:36:46.094Z,45.46
2018-08-27T14:39:16.186Z,46.95
2018-08-27T14:41:47.035Z,45.41
2018-08-27T14:44:17.312Z,46.74
2018-08-27T14:46:47.058Z,46.65
2018-08-27T14:49:16.806Z,45.51
2018-08-27T14:51:46.633Z,46.00
2018-08-27T14:54:16.357Z,46.58
2018-08-27T14:56:46.119Z,45.24
2018-08-27T14:59:15.981Z,45.78
2018-08-27T15:01:48.213Z,45.02
2018-08-27T15:04:19.518Z,41.82
2018-08-27T15:06:49.516Z,41.79
2018-08-27T15:09:19.574Z,41.46
2018-08-27T15:11:49.377Z,41.38
2018-08-27T15:14:19.326Z,43.20
2018-08-27T15:16:49.252Z,41.99
2018-08-27T15:19:18.972Z,42.54
2018-08-27T15:21:48.790Z,42.23
2018-08-27T15:24:18.531Z,43.55
2018-08-27T15:26:48.321Z,45.68
2018-08-27T15:29:19.275Z,45.97
2018-08-27T15:31:48.982Z,46.87
2018-08-27T15:34:18.826Z,47.58
2018-08-27T15:36:48.556Z,48.16
2018-08-27T15:39:18.255Z,48.35
2018-08-27T15:41:48.144Z,47.62
2018-08-27T15:44:17.974Z,48.10
2018-08-27T15:46:48.206Z,47.77
2018-08-27T15:49:18.028Z,44.78
2018-08-27T15:51:48.914Z,43.98
2018-08-27T15:54:18.690Z,42.87
2018-08-27T15:56:48.481Z,45.67
2018-08-27T15:59:18.207Z,48.06
2018-08-27T16:01:47.922Z,50.20
2018-08-27T16:04:17.698Z,51.45
2018-08-27T16:06:47.846Z,52.48
2018-08-27T16:09:17.660Z,52.34
2018-08-27T16:11:48.448Z,51.41
2018-08-27T16:14:18.307Z,50.81
2018-08-27T16:16:48.203Z,51.74
2018-08-27T16:19:18.021Z,52.29
2018-08-27T16:21:47.801Z,52.07
2018-08-27T16:24:17.675Z,52.02
2018-08-27T16:26:47.507Z,52.45
2018-08-27T16:29:17.456Z,52.11
2018-08-27T16:31:47.296Z,51.74
2018-08-27T16:34:17.167Z,51.56
2018-08-27T16:36:47.023Z,50.17
2018-08-27T16:39:17.014Z,51.76
2018-08-27T16:41:48.291Z,51.99
2018-08-27T16:44:18.131Z,51.24
2018-08-27T16:46:47.926Z,51.12
2018-08-27T16:49:17.658Z,50.86
2018-08-27T16:51:47.559Z,51.90
2018-08-27T16:54:17.265Z,50.38
2018-08-27T16:56:47.521Z,51.04
2018-08-27T16:59:17.478Z,51.63
2018-08-27T17:01:47.312Z,52.95
2018-08-27T17:04:17.237Z,50.78
2018-08-27T17:06:46.943Z,51.16
2018-08-27T17:09:16.676Z,52.94
2018-08-27T17:11:46.618Z,51.84
2018-08-27T17:14:16.339Z,51.99
2018-08-27T17:16:46.178Z,52.57
2018-08-27T17:19:15.972Z,53.56
2018-08-27T17:21:45.988Z,53.32
2018-08-27T17:24:16.199Z,52.87
2018-08-27T17:26:45.951Z,52.25
2018-08-27T17:29:15.771Z,53.57
2018-08-27T17:31:45.509Z,54.14
2018-08-27T17:34:15.372Z,54.95
2018-08-27T17:36:46.159Z,53.69
2018-08-27T17:39:16.119Z,55.40
2018-08-27T17:41:45.844Z,54.90
2018-08-27T17:44:15.689Z,55.93
2018-08-27T17:46:45.871Z,56.13
2018-08-27T17:49:15.701Z,56.93
2018-08-27T17:51:45.462Z,57.31
2018-08-27T17:54:16.616Z,57.18
2018-08-27T17:56:46.576Z,58.36
2018-08-27T17:59:16.642Z,58.19
2018-08-27T18:01:46.484Z,58.90
2018-08-27T18:04:17.334Z,58.90
2018-08-27T18:06:47.385Z,59.21
2018-08-27T18:09:17.834Z,59.91
2018-08-27T18:11:49.948Z,60.84
2018-08-27T18:14:19.749Z,61.22
2018-08-27T18:16:50.121Z,61.17
2018-08-27T18:19:20.104Z,61.84
2018-08-27T18:21:50.277Z,61.97
2018-08-27T18:24:20.033Z,61.94
2018-08-27T18:26:49.984Z,61.47
2018-08-27T18:29:19.822Z,62.74
2018-08-27T18:31:49.942Z,63.72
2018-08-27T18:34:19.853Z,63.46
2018-08-27T18:36:49.945Z,63.28
2018-08-27T18:39:20.171Z,62.86
2018-08-27T18:41:50.024Z,61.90
2018-08-27T18:44:19.755Z,62.60
2018-08-27T18:46:49.925Z,63.68
2018-08-27T18:49:19.878Z,63.96
2018-08-27T18:51:49.874Z,63.56
2018-08-27T18:54:19.642Z,63.58
2018-08-27T18:56:49.743Z,64.17
2018-08-27T18:59:19.688Z,64.14
2018-08-27T19:01:50.767Z,63.86
2018-08-27T19:04:20.988Z,64.22
2018-08-27T19:06:51.136Z,63.86
2018-08-27T19:09:21.151Z,64.66
2018-08-27T19:11:51.220Z,65.35
2018-08-27T19:14:21.427Z,65.25
2018-08-27T19:16:51.469Z,64.45
2018-08-27T19:19:21.564Z,64.11
2018-08-27T19:21:51.662Z,65.27
2018-08-27T19:24:21.868Z,65.28
2018-08-27T19:26:52.109Z,65.55
2018-08-27T19:29:22.332Z,65.64
2018-08-27T19:31:52.497Z,65.29
2018-08-27T19:34:22.688Z,63.72
2018-08-27T19:36:53.112Z,64.34
2018-08-27T19:39:23.242Z,64.72
2018-08-27T19:41:53.354Z,65.35
2018-08-27T19:44:23.599Z,64.66
2018-08-27T19:46:53.509Z,64.75
2018-08-27T19:49:23.540Z,63.77
2018-08-27T19:51:53.310Z,62.75
2018-08-27T19:54:23.108Z,63.39
2018-08-27T19:56:53.005Z,62.28
2018-08-27T19:59:22.737Z,62.39
2018-08-27T20:01:52.543Z,62.14
2018-08-27T20:04:22.379Z,62.97
2018-08-27T20:06:53.367Z,62.05
2018-08-27T20:09:23.328Z,62.16
2018-08-27T20:11:53.341Z,61.55
2018-08-27T20:14:23.645Z,61.36
2018-08-27T20:16:53.497Z,61.41
2018-08-27T20:19:29.696Z,61.27
2018-08-27T20:21:59.505Z,61.55
2018-08-27T20:24:29.302Z,61.81
2018-08-27T20:26:59.112Z,62.41
2018-08-27T20:29:28.881Z,62.48
2018-08-27T20:31:58.701Z,62.41
2018-08-27T20:34:28.510Z,62.03
2018-08-27T20:36:58.597Z,61.32
2018-08-27T20:39:32.086Z,61.72
2018-08-27T20:42:06.110Z,61.74
2018-08-27T20:44:36.746Z,61.31
2018-08-27T20:47:08.243Z,62.27
2018-08-27T20:49:38.499Z,62.15
2018-08-27T20:52:08.441Z,62.41
2018-08-27T20:54:38.294Z,63.34
2018-08-27T20:59:44.739Z,63.14
2018-08-27T21:02:17.558Z,62.97
2018-08-27T21:04:47.671Z,63.16
2018-08-27T21:07:18.498Z,63.17
2018-08-27T21:09:52.853Z,64.65
2018-08-27T21:12:23.287Z,64.16
2018-08-27T21:15:06.240Z,64.75
2018-08-27T21:17:37.826Z,64.05
2018-08-27T21:20:09.522Z,63.97
2018-08-27T21:22:39.715Z,64.09
2018-08-27T21:25:14.864Z,63.96
2018-08-27T21:27:45.522Z,64.20
2018-08-27T21:30:16.876Z,65.27
2018-08-27T21:32:46.753Z,64.04
2018-08-27T21:35:16.646Z,65.00
2018-08-27T21:37:46.361Z,65.42
2018-08-27T21:40:16.403Z,65.53
2018-08-27T21:42:46.365Z,64.97
2018-08-27T21:45:16.318Z,65.79
2018-08-27T21:47:46.359Z,66.22
2018-08-27T21:50:16.362Z,66.31
2018-08-27T21:52:46.503Z,66.38
2018-08-27T21:55:16.521Z,67.70
2018-08-27T21:57:46.414Z,67.26
2018-08-27T22:00:16.381Z,68.17
2018-08-27T22:02:51.235Z,67.61
2018-08-27T22:05:20.958Z,68.69
2018-08-27T22:07:50.814Z,67.96
2018-08-27T22:10:20.731Z,68.33
2018-08-27T22:12:50.418Z,67.79
2018-08-27T22:15:20.193Z,67.88
2018-08-27T22:17:50.057Z,68.30
2018-08-27T22:20:22.453Z,67.57
2018-08-27T22:22:52.412Z,68.27
2018-08-27T22:25:22.370Z,68.50
2018-08-27T22:27:53.070Z,67.77
2018-08-27T22:30:22.891Z,68.63
2018-08-27T22:32:53.867Z,69.99
2018-08-27T22:35:24.550Z,68.96
2018-08-27T22:37:54.601Z,70.72
2018-08-27T22:40:24.673Z,69.41
2018-08-27T22:42:54.532Z,69.04
2018-08-27T22:45:25.500Z,70.05
2018-08-27T22:47:55.611Z,70.45
2018-08-27T22:50:25.387Z,69.84
2018-08-27T22:52:55.249Z,69.93
2018-08-27T22:55:25.011Z,69.27
2018-08-27T22:57:54.795Z,70.21
2018-08-27T23:00:27.837Z,70.33
2018-08-27T23:03:02.574Z,69.94
2018-08-27T23:05:32.456Z,70.27
2018-08-27T23:08:02.222Z,70.44
2018-08-27T23:10:32.040Z,70.57
2018-08-27T23:13:01.784Z,70.08
2018-08-27T23:15:31.632Z,69.90
2018-08-27T23:18:01.344Z,70.08
2018-08-27T23:20:31.223Z,71.60
2018-08-27T23:23:01.987Z,71.42
2018-08-27T23:25:31.751Z,71.21
2018-08-27T23:28:01.535Z,70.49
2018-08-27T23:30:31.262Z,71.92
2018-08-27T23:33:01.002Z,71.38
2018-08-27T23:35:30.740Z,72.15
2018-08-27T23:38:00.396Z,71.77
2018-08-27T23:40:30.168Z,71.72
2018-08-27T23:42:59.857Z,72.21
2018-08-27T23:45:29.544Z,72.78
2018-08-27T23:47:59.244Z,72.28
2018-08-27T23:50:28.995Z,72.37
2018-08-27T23:52:58.722Z,73.12
2018-08-27T23:55:28.411Z,72.19
2018-08-27T23:57:58.246Z,73.36
